Terminal Aerodrome Forecast
Issued by NWS Cleveland, OH

Home | Current Version | Previous Version | Text Only | Print | Product List | Glossary Off
Versions: 1 2 3 4 5 6 7 8 9 10 11 12 13 14 15 16

000
FTUS41 KCLE 181444 AAA
TAFCAK
TAF AMD
KCAK 181444Z 1815/1912 27012G18KT P6SM BKN035
     FM181800 26012G22KT P6SM BKN050
     FM182300 24006KT P6SM SCT200
     FM191100 24006KT P6SM SCT100 OVC200=

USA.gov is the U.S. government's official web portal to all federal, state and local government web resources and services.